sensor_id;sensor_type;location;lat;lon;timestamp;pressure;altitude;pressure_sealevel;temperature;humidity
59831;BME280;45711;50.108;13.712;2024-02-15T00:01:23;98379.09;;;6.51;100.00
59831;BME280;45711;50.108;13.712;2024-02-15T00:03:50;98374.03;;;6.49;100.00
59831;BME280;45711;50.108;13.712;2024-02-15T00:06:16;98375.38;;;6.52;100.00
59831;BME280;45711;50.108;13.712;2024-02-15T00:08:41;98383.63;;;6.50;100.00
59831;BME280;45711;50.108;13.712;2024-02-15T00:11:07;98378.84;;;6.52;100.00
59831;BME280;45711;50.108;13.712;2024-02-15T00:13:34;98378.56;;;6.49;100.00
59831;BME280;45711;50.108;13.712;2024-02-15T00:16:01;98371.78;;;6.58;100.00
59831;BME280;45711;50.108;13.712;2024-02-15T00:18:28;98371.59;;;6.48;100.00
59831;BME280;45711;50.108;13.712;2024-02-15T00:20:53;98375.38;;;6.52;100.00
59831;BME280;45711;50.108;13.712;2024-02-15T00:23:19;98370.16;;;6.57;100.00
59831;BME280;45711;50.108;13.712;2024-02-15T00:25:45;98379.44;;;6.54;100.00
59831;BME280;45711;50.108;13.712;2024-02-15T00:28:11;98369.28;;;6.51;100.00
59831;BME280;45711;50.108;13.712;2024-02-15T00:30:37;98372.59;;;6.59;100.00
59831;BME280;45711;50.108;13.712;2024-02-15T00:33:03;98374.28;;;6.65;100.00
59831;BME280;45711;50.108;13.712;2024-02-15T00:35:30;98363.63;;;6.48;100.00
59831;BME280;45711;50.108;13.712;2024-02-15T00:37:55;98365.56;;;6.52;100.00
59831;BME280;45711;50.108;13.712;2024-02-15T00:40:22;98355.97;;;6.51;100.00
59831;BME280;45711;50.108;13.712;2024-02-15T00:42:48;98360.75;;;6.49;100.00
59831;BME280;45711;50.108;13.712;2024-02-15T00:45:13;98358.97;;;6.55;100.00
59831;BME280;45711;50.108;13.712;2024-02-15T00:47:39;98343.72;;;6.50;100.00
59831;BME280;45711;50.108;13.712;2024-02-15T00:50:08;98353.56;;;6.50;100.00
59831;BME280;45711;50.108;13.712;2024-02-15T00:52:35;98355.16;;;6.51;100.00
59831;BME280;45711;50.108;13.712;2024-02-15T00:55:00;98362.34;;;6.50;100.00
59831;BME280;45711;50.108;13.712;2024-02-15T00:57:25;98356.78;;;6.52;100.00
59831;BME280;45711;50.108;13.712;2024-02-15T00:59:51;98357.28;;;6.49;100.00
59831;BME280;45711;50.108;13.712;2024-02-15T01:02:19;98355.97;;;6.51;100.00
59831;BME280;45711;50.108;13.712;2024-02-15T01:04:45;98364.53;;;6.53;100.00
59831;BME280;45711;50.108;13.712;2024-02-15T01:07:11;98349.06;;;6.50;100.00
59831;BME280;45711;50.108;13.712;2024-02-15T01:09:38;98349.31;;;6.49;100.00
59831;BME280;45711;50.108;13.712;2024-02-15T01:12:04;98345.34;;;6.51;100.00
59831;BME280;45711;50.108;13.712;2024-02-15T01:14:30;98348.56;;;6.53;100.00
59831;BME280;45711;50.108;13.712;2024-02-15T01:16:56;98342.47;;;6.53;100.00
59831;BME280;45711;50.108;13.712;2024-02-15T01:19:21;98344.63;;;6.56;100.00
59831;BME280;45711;50.108;13.712;2024-02-15T01:21:47;98350.13;;;6.66;100.00
59831;BME280;45711;50.108;13.712;2024-02-15T01:24:12;98338.97;;;6.52;100.00
59831;BME280;45711;50.108;13.712;2024-02-15T01:26:40;98333.75;;;6.58;100.00
59831;BME280;45711;50.108;13.712;2024-02-15T01:29:05;98340.50;;;6.65;100.00
59831;BME280;45711;50.108;13.712;2024-02-15T01:31:31;98342.94;;;6.67;100.00
59831;BME280;45711;50.108;13.712;2024-02-15T01:33:56;98341.47;;;6.59;100.00
59831;BME280;45711;50.108;13.712;2024-02-15T01:36:22;98342.03;;;6.61;100.00
59831;BME280;45711;50.108;13.712;2024-02-15T01:38:48;98352.28;;;6.69;100.00
59831;BME280;45711;50.108;13.712;2024-02-15T01:41:13;98343.66;;;6.62;100.00
59831;BME280;45711;50.108;13.712;2024-02-15T01:43:44;98344.38;;;6.58;100.00
59831;BME280;45711;50.108;13.712;2024-02-15T01:46:10;98345.28;;;6.63;100.00
59831;BME280;45711;50.108;13.712;2024-02-15T01:48:37;98341.97;;;6.56;100.00
59831;BME280;45711;50.108;13.712;2024-02-15T01:51:05;98336.00;;;6.49;100.00
59831;BME280;45711;50.108;13.712;2024-02-15T01:53:31;98341.97;;;6.73;100.00
59831;BME280;45711;50.108;13.712;2024-02-15T01:55:58;98334.63;;;6.63;100.00
59831;BME280;45711;50.108;13.712;2024-02-15T01:58:25;98339.53;;;6.88;100.00
59831;BME280;45711;50.108;13.712;2024-02-15T02:00:53;98338.97;;;6.86;100.00
59831;BME280;45711;50.108;13.712;2024-02-15T02:03:21;98342.41;;;7.03;100.00
59831;BME280;45711;50.108;13.712;2024-02-15T02:05:47;98335.88;;;6.94;100.00
59831;BME280;45711;50.108;13.712;2024-02-15T02:08:12;98331.72;;;6.65;100.00
59831;BME280;45711;50.108;13.712;2024-02-15T02:10:38;98333.44;;;6.54;100.00
59831;BME280;45711;50.108;13.712;2024-02-15T02:13:04;98323.19;;;6.46;100.00
59831;BME280;45711;50.108;13.712;2024-02-15T02:15:31;98321.47;;;6.40;100.00
59831;BME280;45711;50.108;13.712;2024-02-15T02:17:58;98324.72;;;6.42;100.00
59831;BME280;45711;50.108;13.712;2024-02-15T02:20:25;98324.53;;;6.48;100.00
59831;BME280;45711;50.108;13.712;2024-02-15T02:22:53;98325.03;;;6.45;100.00
59831;BME280;45711;50.108;13.712;2024-02-15T02:25:22;98323.66;;;6.60;100.00
59831;BME280;45711;50.108;13.712;2024-02-15T02:27:52;98327.78;;;6.67;100.00
59831;BME280;45711;50.108;13.712;2024-02-15T02:30:17;98327.72;;;6.62;100.00
59831;BME280;45711;50.108;13.712;2024-02-15T02:32:44;98324.78;;;6.64;100.00
59831;BME280;45711;50.108;13.712;2024-02-15T02:35:10;98323.13;;;6.58;100.00
59831;BME280;45711;50.108;13.712;2024-02-15T02:37:38;98321.00;;;6.60;100.00
59831;BME280;45711;50.108;13.712;2024-02-15T02:40:05;98321.47;;;6.57;100.00
59831;BME280;45711;50.108;13.712;2024-02-15T02:42:34;98309.31;;;6.61;100.00
59831;BME280;45711;50.108;13.712;2024-02-15T02:44:59;98318.69;;;6.63;100.00
59831;BME280;45711;50.108;13.712;2024-02-15T02:47:25;98311.66;;;6.57;100.00
59831;BME280;45711;50.108;13.712;2024-02-15T02:49:51;98307.38;;;6.56;100.00
59831;BME280;45711;50.108;13.712;2024-02-15T02:52:17;98311.19;;;6.60;100.00
59831;BME280;45711;50.108;13.712;2024-02-15T02:54:43;98318.59;;;6.58;100.00
59831;BME280;45711;50.108;13.712;2024-02-15T02:57:08;98315.63;;;6.54;100.00
59831;BME280;45711;50.108;13.712;2024-02-15T02:59:35;98315.44;;;6.61;100.00
59831;BME280;45711;50.108;13.712;2024-02-15T03:02:01;98315.13;;;6.58;100.00
59831;BME280;45711;50.108;13.712;2024-02-15T03:04:27;98308.44;;;6.55;100.00
59831;BME280;45711;50.108;13.712;2024-02-15T03:06:53;98308.91;;;6.52;100.00
59831;BME280;45711;50.108;13.712;2024-02-15T03:09:21;98307.56;;;6.49;100.00
59831;BME280;45711;50.108;13.712;2024-02-15T03:11:48;98311.81;;;6.50;100.00
59831;BME280;45711;50.108;13.712;2024-02-15T03:14:15;98312.63;;;6.51;100.00
59831;BME280;45711;50.108;13.712;2024-02-15T03:16:41;98306.19;;;6.47;100.00
59831;BME280;45711;50.108;13.712;2024-02-15T03:19:07;98311.97;;;6.44;100.00
59831;BME280;45711;50.108;13.712;2024-02-15T03:21:34;98310.69;;;6.46;100.00
59831;BME280;45711;50.108;13.712;2024-02-15T03:24:00;98322.72;;;6.49;100.00
59831;BME280;45711;50.108;13.712;2024-02-15T03:26:29;98318.94;;;6.45;100.00
59831;BME280;45711;50.108;13.712;2024-02-15T03:28:56;98311.97;;;6.44;100.00
59831;BME280;45711;50.108;13.712;2024-02-15T03:31:22;98311.75;;;6.45;100.00
59831;BME280;45711;50.108;13.712;2024-02-15T03:33:48;98308.50;;;6.43;100.00
59831;BME280;45711;50.108;13.712;2024-02-15T03:36:16;98314.63;;;6.44;100.00
59831;BME280;45711;50.108;13.712;2024-02-15T03:38:43;98317.28;;;6.44;100.00
59831;BME280;45711;50.108;13.712;2024-02-15T03:41:10;98316.50;;;6.43;100.00
59831;BME280;45711;50.108;13.712;2024-02-15T03:43:35;98316.28;;;6.45;100.00
59831;BME280;45711;50.108;13.712;2024-02-15T03:46:01;98312.47;;;6.41;100.00
59831;BME280;45711;50.108;13.712;2024-02-15T03:48:26;98322.59;;;6.44;100.00
59831;BME280;45711;50.108;13.712;2024-02-15T03:50:53;98326.91;;;6.45;100.00
59831;BME280;45711;50.108;13.712;2024-02-15T03:53:19;98331.97;;;6.46;100.00
59831;BME280;45711;50.108;13.712;2024-02-15T03:55:45;98332.63;;;6.37;100.00
59831;BME280;45711;50.108;13.712;2024-02-15T03:58:10;98332.38;;;6.38;100.00
59831;BME280;45711;50.108;13.712;2024-02-15T04:00:37;98328.91;;;6.38;100.00
59831;BME280;45711;50.108;13.712;2024-02-15T04:03:04;98329.38;;;6.35;100.00
59831;BME280;45711;50.108;13.712;2024-02-15T04:05:30;98330.44;;;6.34;100.00
59831;BME280;45711;50.108;13.712;2024-02-15T04:07:57;98328.56;;;6.34;100.00
59831;BME280;45711;50.108;13.712;2024-02-15T04:10:22;98327.28;;;6.37;100.00
59831;BME280;45711;50.108;13.712;2024-02-15T04:12:48;98332.94;;;6.40;100.00
59831;BME280;45711;50.108;13.712;2024-02-15T04:15:17;98324.72;;;6.42;100.00
59831;BME280;45711;50.108;13.712;2024-02-15T04:17:43;98318.66;;;6.46;100.00
59831;BME280;45711;50.108;13.712;2024-02-15T04:20:10;98320.19;;;6.42;100.00
59831;BME280;45711;50.108;13.712;2024-02-15T04:22:37;98315.53;;;6.49;100.00
59831;BME280;45711;50.108;13.712;2024-02-15T04:25:05;98320.53;;;6.46;100.00
59831;BME280;45711;50.108;13.712;2024-02-15T04:27:35;98328.50;;;6.46;100.00
59831;BME280;45711;50.108;13.712;2024-02-15T04:30:01;98326.41;;;6.48;100.00
59831;BME280;45711;50.108;13.712;2024-02-15T04:32:27;98317.63;;;6.47;100.00
59831;BME280;45711;50.108;13.712;2024-02-15T04:34:54;98319.81;;;6.67;100.00
59831;BME280;45711;50.108;13.712;2024-02-15T04:37:19;98332.59;;;6.87;100.00
59831;BME280;45711;50.108;13.712;2024-02-15T04:39:46;98337.63;;;6.67;100.00
59831;BME280;45711;50.108;13.712;2024-02-15T04:42:13;98332.78;;;6.64;100.00
59831;BME280;45711;50.108;13.712;2024-02-15T04:44:40;98327.47;;;6.64;100.00
59831;BME280;45711;50.108;13.712;2024-02-15T04:47:06;98318.09;;;6.61;100.00
59831;BME280;45711;50.108;13.712;2024-02-15T04:49:32;98328.72;;;6.61;100.00
59831;BME280;45711;50.108;13.712;2024-02-15T04:51:57;98329.78;;;6.60;100.00
59831;BME280;45711;50.108;13.712;2024-02-15T04:54:23;98330.84;;;6.59;100.00
59831;BME280;45711;50.108;13.712;2024-02-15T04:56:49;98330.50;;;6.55;100.00
59831;BME280;45711;50.108;13.712;2024-02-15T04:59:20;98327.06;;;6.55;100.00
59831;BME280;45711;50.108;13.712;2024-02-15T05:01:47;98331.72;;;6.48;100.00
59831;BME280;45711;50.108;13.712;2024-02-15T05:04:12;98331.25;;;6.51;100.00
59831;BME280;45711;50.108;13.712;2024-02-15T05:06:39;98327.94;;;6.44;100.00
59831;BME280;45711;50.108;13.712;2024-02-15T05:09:05;98331.56;;;6.38;100.00
59831;BME280;45711;50.108;13.712;2024-02-15T05:11:33;98332.69;;;6.42;100.00
59831;BME280;45711;50.108;13.712;2024-02-15T05:14:00;98324.78;;;6.47;100.00
59831;BME280;45711;50.108;13.712;2024-02-15T05:16:27;98322.72;;;6.49;100.00
59831;BME280;45711;50.108;13.712;2024-02-15T05:18:53;98322.22;;;6.52;100.00
59831;BME280;45711;50.108;13.712;2024-02-15T05:21:18;98333.19;;;6.55;100.00
59831;BME280;45711;50.108;13.712;2024-02-15T05:23:45;98328.72;;;6.61;100.00
59831;BME280;45711;50.108;13.712;2024-02-15T05:26:11;98340.28;;;6.67;100.00
59831;BME280;45711;50.108;13.712;2024-02-15T05:28:37;98331.16;;;6.63;100.00
59831;BME280;45711;50.108;13.712;2024-02-15T05:31:15;98318.09;;;6.61;100.00
59831;BME280;45711;50.108;13.712;2024-02-15T05:33:44;98334.06;;;6.61;100.00
59831;BME280;45711;50.108;13.712;2024-02-15T05:36:10;98335.91;;;6.61;100.00
59831;BME280;45711;50.108;13.712;2024-02-15T05:38:36;98337.44;;;6.73;100.00
59831;BME280;45711;50.108;13.712;2024-02-15T05:41:02;98329.31;;;6.63;100.00
59831;BME280;45711;50.108;13.712;2024-02-15T05:43:28;98336.16;;;6.59;100.00
59831;BME280;45711;50.108;13.712;2024-02-15T05:45:53;98347.75;;;6.70;100.00
59831;BME280;45711;50.108;13.712;2024-02-15T05:48:19;98343.16;;;6.65;100.00
59831;BME280;45711;50.108;13.712;2024-02-15T05:50:48;98346.72;;;6.54;100.00
59831;BME280;45711;50.108;13.712;2024-02-15T05:53:13;98347.28;;;6.56;100.00
59831;BME280;45711;50.108;13.712;2024-02-15T05:55:39;98343.56;;;6.57;100.00
59831;BME280;45711;50.108;13.712;2024-02-15T05:58:09;98344.63;;;6.56;100.00
59831;BME280;45711;50.108;13.712;2024-02-15T06:00:36;98349.72;;;6.58;100.00
59831;BME280;45711;50.108;13.712;2024-02-15T06:03:04;98335.34;;;6.59;100.00
59831;BME280;45711;50.108;13.712;2024-02-15T06:05:29;98345.50;;;6.62;100.00
59831;BME280;45711;50.108;13.712;2024-02-15T06:07:56;98346.53;;;6.61;100.00
59831;BME280;45711;50.108;13.712;2024-02-15T06:10:22;98351.06;;;6.60;100.00
59831;BME280;45711;50.108;13.712;2024-02-15T06:12:48;98349.47;;;6.59;100.00
59831;BME280;45711;50.108;13.712;2024-02-15T06:15:14;98354.19;;;6.57;100.00
59831;BME280;45711;50.108;13.712;2024-02-15T06:17:46;98360.03;;;6.71;100.00
59831;BME280;45711;50.108;13.712;2024-02-15T06:20:12;98358.78;;;6.62;100.00
59831;BME280;45711;50.108;13.712;2024-02-15T06:22:39;98364.34;;;6.60;100.00
59831;BME280;45711;50.108;13.712;2024-02-15T06:25:07;98361.78;;;6.65;100.00
59831;BME280;45711;50.108;13.712;2024-02-15T06:27:32;98369.34;;;6.57;100.00
59831;BME280;45711;50.108;13.712;2024-02-15T06:29:58;98376.78;;;6.88;100.00
59831;BME280;45711;50.108;13.712;2024-02-15T06:32:42;98368.72;;;6.66;100.00
59831;BME280;45711;50.108;13.712;2024-02-15T06:35:27;98363.56;;;6.60;100.00
59831;BME280;45711;50.108;13.712;2024-02-15T06:38:11;98362.19;;;6.57;100.00
59831;BME280;45711;50.108;13.712;2024-02-15T06:40:57;98366.22;;;6.60;100.00
59831;BME280;45711;50.108;13.712;2024-02-15T06:43:22;98363.00;;;6.58;100.00
59831;BME280;45711;50.108;13.712;2024-02-15T06:45:48;98371.78;;;6.58;100.00
59831;BME280;45711;50.108;13.712;2024-02-15T06:48:16;98377.09;;;6.58;100.00
59831;BME280;45711;50.108;13.712;2024-02-15T06:50:41;98378.97;;;6.58;100.00
59831;BME280;45711;50.108;13.712;2024-02-15T06:53:07;98380.78;;;6.57;100.00
59831;BME280;45711;50.108;13.712;2024-02-15T06:55:33;98392.09;;;6.64;100.00
59831;BME280;45711;50.108;13.712;2024-02-15T06:58:00;98394.19;;;6.62;100.00
59831;BME280;45711;50.108;13.712;2024-02-15T07:00:26;98397.31;;;6.59;100.00
59831;BME280;45711;50.108;13.712;2024-02-15T07:02:51;98390.47;;;6.63;100.00
59831;BME280;45711;50.108;13.712;2024-02-15T07:05:18;98393.34;;;6.62;100.00
59831;BME280;45711;50.108;13.712;2024-02-15T07:07:44;98389.91;;;6.61;100.00
59831;BME280;45711;50.108;13.712;2024-02-15T07:10:10;98385.97;;;6.64;100.00
59831;BME280;45711;50.108;13.712;2024-02-15T07:12:36;98391.94;;;6.71;100.00
59831;BME280;45711;50.108;13.712;2024-02-15T07:15:04;98390.97;;;6.77;100.00
59831;BME280;45711;50.108;13.712;2024-02-15T07:17:32;98379.53;;;6.76;100.00
59831;BME280;45711;50.108;13.712;2024-02-15T07:19:57;98391.38;;;6.86;100.00
59831;BME280;45711;50.108;13.712;2024-02-15T07:22:23;98383.72;;;6.72;100.00
59831;BME280;45711;50.108;13.712;2024-02-15T07:24:48;98377.25;;;6.68;100.00
59831;BME280;45711;50.108;13.712;2024-02-15T07:27:14;98384.09;;;6.64;100.00
59831;BME280;45711;50.108;13.712;2024-02-15T07:29:40;98389.69;;;6.63;100.00
59831;BME280;45711;50.108;13.712;2024-02-15T07:32:07;98392.66;;;6.66;100.00
59831;BME280;45711;50.108;13.712;2024-02-15T07:34:33;98390.00;;;6.66;100.00
59831;BME280;45711;50.108;13.712;2024-02-15T07:36:59;98403.06;;;6.85;100.00
59831;BME280;45711;50.108;13.712;2024-02-15T07:39:25;98406.59;;;6.73;100.00
59831;BME280;45711;50.108;13.712;2024-02-15T07:41:53;98398.69;;;6.78;100.00
59831;BME280;45711;50.108;13.712;2024-02-15T07:44:18;98401.59;;;6.77;100.00
59831;BME280;45711;50.108;13.712;2024-02-15T07:46:45;98394.03;;;6.69;100.00
59831;BME280;45711;50.108;13.712;2024-02-15T07:49:12;98391.63;;;6.67;100.00
59831;BME280;45711;50.108;13.712;2024-02-15T07:51:38;98396.44;;;6.70;100.00
59831;BME280;45711;50.108;13.712;2024-02-15T07:54:04;98390.63;;;6.73;100.00
59831;BME280;45711;50.108;13.712;2024-02-15T07:56:30;98390.31;;;6.70;100.00
59831;BME280;45711;50.108;13.712;2024-02-15T07:58:55;98397.81;;;6.90;100.00
59831;BME280;45711;50.108;13.712;2024-02-15T08:01:22;98391.94;;;6.71;100.00
59831;BME280;45711;50.108;13.712;2024-02-15T08:03:48;98405.78;;;7.23;100.00
59831;BME280;45711;50.108;13.712;2024-02-15T08:06:16;98407.59;;;6.84;100.00
59831;BME280;45711;50.108;13.712;2024-02-15T08:08:43;98402.16;;;6.96;100.00
59831;BME280;45711;50.108;13.712;2024-02-15T08:11:11;98400.81;;;6.93;100.00
59831;BME280;45711;50.108;13.712;2024-02-15T08:13:44;98425.56;;;7.49;100.00
59831;BME280;45711;50.108;13.712;2024-02-15T08:16:10;98416.03;;;7.15;100.00
59831;BME280;45711;50.108;13.712;2024-02-15T08:18:37;98406.06;;;6.88;100.00
59831;BME280;45711;50.108;13.712;2024-02-15T08:21:04;98401.84;;;6.75;100.00
59831;BME280;45711;50.108;13.712;2024-02-15T08:23:31;98389.69;;;6.79;100.00
59831;BME280;45711;50.108;13.712;2024-02-15T08:25:57;98394.75;;;6.98;100.00
59831;BME280;45711;50.108;13.712;2024-02-15T08:28:23;98394.34;;;6.89;100.00
59831;BME280;45711;50.108;13.712;2024-02-15T08:30:48;98400.22;;;7.08;100.00
59831;BME280;45711;50.108;13.712;2024-02-15T08:33:14;98391.13;;;6.87;100.00
59831;BME280;45711;50.108;13.712;2024-02-15T08:35:40;98390.88;;;6.72;100.00
59831;BME280;45711;50.108;13.712;2024-02-15T08:38:06;98395.53;;;7.15;100.00
59831;BME280;45711;50.108;13.712;2024-02-15T08:40:33;98403.72;;;7.69;100.00
59831;BME280;45711;50.108;13.712;2024-02-15T08:43:00;98403.16;;;7.89;100.00
59831;BME280;45711;50.108;13.712;2024-02-15T08:45:25;98397.31;;;7.48;100.00
59831;BME280;45711;50.108;13.712;2024-02-15T08:47:51;98379.84;;;6.97;100.00
59831;BME280;45711;50.108;13.712;2024-02-15T08:50:18;98377.38;;;7.12;100.00
59831;BME280;45711;50.108;13.712;2024-02-15T08:52:45;98378.19;;;7.13;100.00
59831;BME280;45711;50.108;13.712;2024-02-15T08:55:12;98396.09;;;7.78;100.00
59831;BME280;45711;50.108;13.712;2024-02-15T08:57:42;98399.34;;;7.80;100.00
59831;BME280;45711;50.108;13.712;2024-02-15T09:00:10;98406.19;;;8.20;100.00
59831;BME280;45711;50.108;13.712;2024-02-15T09:02:42;98390.56;;;7.41;100.00
59831;BME280;45711;50.108;13.712;2024-02-15T09:05:07;98381.09;;;7.11;100.00
59831;BME280;45711;50.108;13.712;2024-02-15T09:07:33;98386.34;;;7.23;100.00
59831;BME280;45711;50.108;13.712;2024-02-15T09:09:59;98393.50;;;7.22;100.00
59831;BME280;45711;50.108;13.712;2024-02-15T09:12:24;98393.78;;;7.43;100.00
59831;BME280;45711;50.108;13.712;2024-02-15T09:14:51;98401.47;;;7.61;100.00
59831;BME280;45711;50.108;13.712;2024-02-15T09:17:17;98402.16;;;7.13;100.00
59831;BME280;45711;50.108;13.712;2024-02-15T09:19:43;98411.00;;;7.57;100.00
59831;BME280;45711;50.108;13.712;2024-02-15T09:22:08;98401.38;;;7.34;100.00
59831;BME280;45711;50.108;13.712;2024-02-15T09:24:34;98397.09;;;6.94;100.00
59831;BME280;45711;50.108;13.712;2024-02-15T09:26:59;98397.34;;;7.10;100.00
59831;BME280;45711;50.108;13.712;2024-02-15T09:29:26;98398.00;;;7.22;100.00
59831;BME280;45711;50.108;13.712;2024-02-15T09:31:53;98389.56;;;7.08;100.00
59831;BME280;45711;50.108;13.712;2024-02-15T09:34:19;98400.34;;;7.57;100.00
59831;BME280;45711;50.108;13.712;2024-02-15T09:36:44;98400.59;;;7.34;100.00
59831;BME280;45711;50.108;13.712;2024-02-15T09:39:11;98384.44;;;7.01;100.00
59831;BME280;45711;50.108;13.712;2024-02-15T09:41:39;98382.31;;;7.03;100.00
59831;BME280;45711;50.108;13.712;2024-02-15T09:44:06;98396.66;;;7.58;100.00
59831;BME280;45711;50.108;13.712;2024-02-15T09:46:35;98395.09;;;8.06;100.00
59831;BME280;45711;50.108;13.712;2024-02-15T09:49:03;98395.19;;;8.16;100.00
59831;BME280;45711;50.108;13.712;2024-02-15T09:51:29;98389.47;;;7.80;100.00
59831;BME280;45711;50.108;13.712;2024-02-15T09:53:57;98395.88;;;8.28;100.00
59831;BME280;45711;50.108;13.712;2024-02-15T09:56:26;98376.69;;;7.61;100.00
59831;BME280;45711;50.108;13.712;2024-02-15T09:58:54;98389.84;;;8.38;100.00
59831;BME280;45711;50.108;13.712;2024-02-15T10:01:22;98373.19;;;7.77;100.00
59831;BME280;45711;50.108;13.712;2024-02-15T10:03:49;98370.63;;;7.65;100.00
59831;BME280;45711;50.108;13.712;2024-02-15T10:06:20;98377.19;;;8.28;100.00
59831;BME280;45711;50.108;13.712;2024-02-15T10:08:45;98389.09;;;9.54;100.00
59831;BME280;45711;50.108;13.712;2024-02-15T10:11:12;98373.91;;;9.18;100.00
59831;BME280;45711;50.108;13.712;2024-02-15T10:13:38;98372.66;;;9.88;100.00
59831;BME280;45711;50.108;13.712;2024-02-15T10:16:14;98358.13;;;9.06;100.00
59831;BME280;45711;50.108;13.712;2024-02-15T10:18:40;98367.47;;;9.61;100.00
59831;BME280;45711;50.108;13.712;2024-02-15T10:21:06;98377.34;;;10.34;100.00
59831;BME280;45711;50.108;13.712;2024-02-15T10:23:33;98376.47;;;10.18;100.00
59831;BME280;45711;50.108;13.712;2024-02-15T10:25:58;98353.66;;;8.79;100.00
59831;BME280;45711;50.108;13.712;2024-02-15T10:28:24;98386.25;;;9.71;100.00
59831;BME280;45711;50.108;13.712;2024-02-15T10:30:50;98369.97;;;9.25;100.00
59831;BME280;45711;50.108;13.712;2024-02-15T10:33:19;98348.28;;;8.15;100.00
59831;BME280;45711;50.108;13.712;2024-02-15T10:36:05;98383.31;;;9.25;100.00
59831;BME280;45711;50.108;13.712;2024-02-15T10:38:32;98362.03;;;8.61;100.00
59831;BME280;45711;50.108;13.712;2024-02-15T10:41:03;98376.66;;;9.28;100.00
59831;BME280;45711;50.108;13.712;2024-02-15T10:43:30;98378.94;;;9.56;100.00
59831;BME280;45711;50.108;13.712;2024-02-15T10:45:58;98375.31;;;9.88;100.00
59831;BME280;45711;50.108;13.712;2024-02-15T10:48:24;98344.00;;;8.14;100.00
59831;BME280;45711;50.108;13.712;2024-02-15T10:50:51;98356.19;;;8.64;100.00
59831;BME280;45711;50.108;13.712;2024-02-15T10:53:26;98349.47;;;8.02;100.00
59831;BME280;45711;50.108;13.712;2024-02-15T10:56:00;98367.94;;;9.43;100.00
59831;BME280;45711;50.108;13.712;2024-02-15T10:58:33;98361.28;;;9.45;100.00
59831;BME280;45711;50.108;13.712;2024-02-15T11:01:06;98349.84;;;9.65;100.00
59831;BME280;45711;50.108;13.712;2024-02-15T11:03:35;98342.34;;;9.04;100.00
59831;BME280;45711;50.108;13.712;2024-02-15T11:06:02;98338.31;;;9.49;100.00
59831;BME280;45711;50.108;13.712;2024-02-15T11:08:30;98349.84;;;9.65;100.00
59831;BME280;45711;50.108;13.712;2024-02-15T11:10:59;98316.06;;;8.86;100.00
59831;BME280;45711;50.108;13.712;2024-02-15T11:13:27;98327.81;;;9.27;100.00
59831;BME280;45711;50.108;13.712;2024-02-15T11:15:55;98333.19;;;9.43;100.00
59831;BME280;45711;50.108;13.712;2024-02-15T11:18:41;98318.44;;;8.82;100.00
59831;BME280;45711;50.108;13.712;2024-02-15T11:21:07;98331.56;;;8.89;100.00
59831;BME280;45711;50.108;13.712;2024-02-15T11:23:32;98319.50;;;8.81;100.00
59831;BME280;45711;50.108;13.712;2024-02-15T11:26:02;98333.78;;;9.50;100.00
59831;BME280;45711;50.108;13.712;2024-02-15T11:28:37;98344.91;;;10.04;100.00
59831;BME280;45711;50.108;13.712;2024-02-15T11:31:07;98327.03;;;8.90;100.00
59831;BME280;45711;50.108;13.712;2024-02-15T11:33:38;98327.25;;;8.46;100.00
59831;BME280;45711;50.108;13.712;2024-02-15T11:36:05;98328.63;;;8.26;100.00
59831;BME280;45711;50.108;13.712;2024-02-15T11:38:31;98337.13;;;8.45;100.00
59831;BME280;45711;50.108;13.712;2024-02-15T11:41:02;98342.50;;;8.88;100.00
59831;BME280;45711;50.108;13.712;2024-02-15T11:43:49;98344.63;;;8.86;100.00
59831;BME280;45711;50.108;13.712;2024-02-15T11:46:22;98339.31;;;9.33;100.00
59831;BME280;45711;50.108;13.712;2024-02-15T11:48:53;98338.56;;;9.00;100.00
59831;BME280;45711;50.108;13.712;2024-02-15T11:51:33;98327.78;;;8.48;100.00
59831;BME280;45711;50.108;13.712;2024-02-15T11:54:06;98342.25;;;9.37;100.00
59831;BME280;45711;50.108;13.712;2024-02-15T11:56:48;98334.28;;;8.94;100.00
59831;BME280;45711;50.108;13.712;2024-02-15T11:59:17;98340.09;;;10.06;100.00
59831;BME280;45711;50.108;13.712;2024-02-15T12:01:57;98324.91;;;9.39;100.00
59831;BME280;45711;50.108;13.712;2024-02-15T12:04:42;98313.78;;;9.05;100.00
59831;BME280;45711;50.108;13.712;2024-02-15T12:07:26;98317.50;;;9.04;100.00
59831;BME280;45711;50.108;13.712;2024-02-15T12:10:16;98329.13;;;10.13;100.00
59831;BME280;45711;50.108;13.712;2024-02-15T12:13:01;98330.28;;;10.73;100.00
59831;BME280;45711;50.108;13.712;2024-02-15T12:15:56;98297.88;;;10.19;100.00
59831;BME280;45711;50.108;13.712;2024-02-15T12:18:42;98295.47;;;10.73;100.00
59831;BME280;45711;50.108;13.712;2024-02-15T12:21:09;98291.66;;;9.88;100.00
59831;BME280;45711;50.108;13.712;2024-02-15T12:23:41;98302.69;;;10.57;100.00
59831;BME280;45711;50.108;13.712;2024-02-15T12:26:07;98293.63;;;10.48;100.00
59831;BME280;45711;50.108;13.712;2024-02-15T12:28:38;98293.63;;;10.64;100.00
59831;BME280;45711;50.108;13.712;2024-02-15T12:31:04;98294.66;;;10.12;100.00
59831;BME280;45711;50.108;13.712;2024-02-15T12:33:32;98275.03;;;9.65;100.00
59831;BME280;45711;50.108;13.712;2024-02-15T12:36:03;98286.56;;;9.76;100.00
59831;BME280;45711;50.108;13.712;2024-02-15T12:38:30;98282.78;;;9.62;100.00
59831;BME280;45711;50.108;13.712;2024-02-15T12:40:56;98292.19;;;9.85;100.00
59831;BME280;45711;50.108;13.712;2024-02-15T12:43:22;98280.78;;;9.26;100.00
59831;BME280;45711;50.108;13.712;2024-02-15T12:45:49;98285.31;;;9.31;100.00
59831;BME280;45711;50.108;13.712;2024-02-15T12:48:14;98283.88;;;9.03;100.00
59831;BME280;45711;50.108;13.712;2024-02-15T12:50:41;98292.81;;;10.38;100.00
59831;BME280;45711;50.108;13.712;2024-02-15T12:53:06;98273.81;;;10.24;100.00